sensor_id;sensor_type;location;lat;lon;timestamp;temperature;humidity
24678;DHT22;12800;53.094;8.778;2023-12-04T00:01:18;2.20;82.70
24678;DHT22;12800;53.094;8.778;2023-12-04T00:03:44;2.20;82.40
24678;DHT22;12800;53.094;8.778;2023-12-04T00:06:10;2.20;83.30
24678;DHT22;12800;53.094;8.778;2023-12-04T00:08:37;2.20;82.50
24678;DHT22;12800;53.094;8.778;2023-12-04T00:11:04;2.10;82.50
24678;DHT22;12800;53.094;8.778;2023-12-04T00:13:29;2.10;82.40
24678;DHT22;12800;53.094;8.778;2023-12-04T00:15:55;2.10;82.30
24678;DHT22;12800;53.094;8.778;2023-12-04T00:18:21;2.00;82.40
24678;DHT22;12800;53.094;8.778;2023-12-04T00:20:46;2.00;82.50
24678;DHT22;12800;53.094;8.778;2023-12-04T00:23:12;2.00;82.80
24678;DHT22;12800;53.094;8.778;2023-12-04T00:25:37;2.00;82.70
24678;DHT22;12800;53.094;8.778;2023-12-04T00:28:03;2.10;82.90
24678;DHT22;12800;53.094;8.778;2023-12-04T00:30:29;2.10;82.90
24678;DHT22;12800;53.094;8.778;2023-12-04T00:32:55;2.00;82.90
24678;DHT22;12800;53.094;8.778;2023-12-04T00:35:20;2.00;82.80
24678;DHT22;12800;53.094;8.778;2023-12-04T00:37:46;2.10;82.90
24678;DHT22;12800;53.094;8.778;2023-12-04T00:40:12;2.10;83.10
24678;DHT22;12800;53.094;8.778;2023-12-04T00:42:37;2.10;82.90
24678;DHT22;12800;53.094;8.778;2023-12-04T00:45:03;2.00;82.70
24678;DHT22;12800;53.094;8.778;2023-12-04T00:47:29;2.00;82.70
24678;DHT22;12800;53.094;8.778;2023-12-04T00:49:55;2.00;82.70
24678;DHT22;12800;53.094;8.778;2023-12-04T00:52:20;2.00;82.70
24678;DHT22;12800;53.094;8.778;2023-12-04T00:54:46;2.00;82.60
24678;DHT22;12800;53.094;8.778;2023-12-04T00:57:11;2.00;82.50
24678;DHT22;12800;53.094;8.778;2023-12-04T00:59:37;2.00;82.60
24678;DHT22;12800;53.094;8.778;2023-12-04T01:02:03;2.00;82.50
24678;DHT22;12800;53.094;8.778;2023-12-04T01:04:30;1.90;82.50
24678;DHT22;12800;53.094;8.778;2023-12-04T01:06:56;2.00;82.80
24678;DHT22;12800;53.094;8.778;2023-12-04T01:09:21;2.00;82.70
24678;DHT22;12800;53.094;8.778;2023-12-04T01:11:53;2.00;83.00
24678;DHT22;12800;53.094;8.778;2023-12-04T01:14:19;2.00;82.80
24678;DHT22;12800;53.094;8.778;2023-12-04T01:16:45;2.10;82.90
24678;DHT22;12800;53.094;8.778;2023-12-04T01:19:10;2.10;82.50
24678;DHT22;12800;53.094;8.778;2023-12-04T01:21:36;2.10;82.70
24678;DHT22;12800;53.094;8.778;2023-12-04T01:24:02;2.10;82.60
24678;DHT22;12800;53.094;8.778;2023-12-04T01:26:27;2.10;82.70
24678;DHT22;12800;53.094;8.778;2023-12-04T01:28:53;2.10;82.60
24678;DHT22;12800;53.094;8.778;2023-12-04T01:31:19;2.20;82.60
24678;DHT22;12800;53.094;8.778;2023-12-04T01:33:44;2.20;82.60
24678;DHT22;12800;53.094;8.778;2023-12-04T01:36:10;2.20;82.50
24678;DHT22;12800;53.094;8.778;2023-12-04T01:38:37;2.20;82.70
24678;DHT22;12800;53.094;8.778;2023-12-04T01:41:03;2.20;82.70
24678;DHT22;12800;53.094;8.778;2023-12-04T01:43:29;2.20;82.70
24678;DHT22;12800;53.094;8.778;2023-12-04T01:45:54;2.20;82.70
24678;DHT22;12800;53.094;8.778;2023-12-04T01:48:20;2.30;82.60
24678;DHT22;12800;53.094;8.778;2023-12-04T01:50:47;2.20;82.40
24678;DHT22;12800;53.094;8.778;2023-12-04T01:53:13;2.20;82.30
24678;DHT22;12800;53.094;8.778;2023-12-04T01:55:39;2.20;82.30
24678;DHT22;12800;53.094;8.778;2023-12-04T01:58:06;2.20;82.40
24678;DHT22;12800;53.094;8.778;2023-12-04T02:00:32;2.10;82.10
24678;DHT22;12800;53.094;8.778;2023-12-04T02:02:59;2.10;82.20
24678;DHT22;12800;53.094;8.778;2023-12-04T02:05:26;2.10;82.40
24678;DHT22;12800;53.094;8.778;2023-12-04T02:07:55;2.10;82.50
24678;DHT22;12800;53.094;8.778;2023-12-04T02:10:21;2.10;82.50
24678;DHT22;12800;53.094;8.778;2023-12-04T02:12:48;2.10;82.50
24678;DHT22;12800;53.094;8.778;2023-12-04T02:15:13;2.10;82.70
24678;DHT22;12800;53.094;8.778;2023-12-04T02:17:39;2.00;82.60
24678;DHT22;12800;53.094;8.778;2023-12-04T02:20:06;2.10;82.80
24678;DHT22;12800;53.094;8.778;2023-12-04T02:22:33;2.10;82.90
24678;DHT22;12800;53.094;8.778;2023-12-04T02:24:59;2.10;83.00
24678;DHT22;12800;53.094;8.778;2023-12-04T02:27:29;2.10;82.90
24678;DHT22;12800;53.094;8.778;2023-12-04T02:29:59;2.10;83.00
24678;DHT22;12800;53.094;8.778;2023-12-04T02:32:29;2.10;83.00
24678;DHT22;12800;53.094;8.778;2023-12-04T02:34:56;2.10;83.00
24678;DHT22;12800;53.094;8.778;2023-12-04T02:37:24;2.10;83.10
24678;DHT22;12800;53.094;8.778;2023-12-04T02:39:50;2.10;83.00
24678;DHT22;12800;53.094;8.778;2023-12-04T02:42:18;2.10;83.20
24678;DHT22;12800;53.094;8.778;2023-12-04T02:44:44;2.10;83.30
24678;DHT22;12800;53.094;8.778;2023-12-04T02:47:11;2.10;83.40
24678;DHT22;12800;53.094;8.778;2023-12-04T02:49:37;2.20;83.40
24678;DHT22;12800;53.094;8.778;2023-12-04T02:52:02;2.10;83.30
24678;DHT22;12800;53.094;8.778;2023-12-04T02:54:28;2.10;83.30
24678;DHT22;12800;53.094;8.778;2023-12-04T02:56:54;2.10;83.40
24678;DHT22;12800;53.094;8.778;2023-12-04T02:59:20;2.10;83.70
24678;DHT22;12800;53.094;8.778;2023-12-04T03:01:45;2.10;83.80
24678;DHT22;12800;53.094;8.778;2023-12-04T03:04:11;2.10;83.80
24678;DHT22;12800;53.094;8.778;2023-12-04T03:06:36;2.10;83.90
24678;DHT22;12800;53.094;8.778;2023-12-04T03:09:03;2.10;83.90
24678;DHT22;12800;53.094;8.778;2023-12-04T03:11:29;2.10;84.00
24678;DHT22;12800;53.094;8.778;2023-12-04T03:13:55;2.10;84.00
24678;DHT22;12800;53.094;8.778;2023-12-04T03:16:20;2.10;84.10
24678;DHT22;12800;53.094;8.778;2023-12-04T03:18:46;2.10;84.10
24678;DHT22;12800;53.094;8.778;2023-12-04T03:21:12;2.10;84.30
24678;DHT22;12800;53.094;8.778;2023-12-04T03:23:38;2.10;84.60
24678;DHT22;12800;53.094;8.778;2023-12-04T03:26:03;2.10;85.40
24678;DHT22;12800;53.094;8.778;2023-12-04T03:28:29;2.10;84.80
24678;DHT22;12800;53.094;8.778;2023-12-04T03:30:55;2.20;84.80
24678;DHT22;12800;53.094;8.778;2023-12-04T03:33:20;2.20;84.90
24678;DHT22;12800;53.094;8.778;2023-12-04T03:35:46;2.10;84.70
24678;DHT22;12800;53.094;8.778;2023-12-04T03:38:12;2.10;84.80
24678;DHT22;12800;53.094;8.778;2023-12-04T03:40:38;2.20;85.00
24678;DHT22;12800;53.094;8.778;2023-12-04T03:43:03;2.10;85.00
24678;DHT22;12800;53.094;8.778;2023-12-04T03:45:29;2.10;85.00
24678;DHT22;12800;53.094;8.778;2023-12-04T03:47:55;2.20;85.10
24678;DHT22;12800;53.094;8.778;2023-12-04T03:50:20;2.10;85.00
24678;DHT22;12800;53.094;8.778;2023-12-04T03:52:46;2.10;85.20
24678;DHT22;12800;53.094;8.778;2023-12-04T03:55:11;2.20;85.50
24678;DHT22;12800;53.094;8.778;2023-12-04T03:57:37;2.10;85.30
24678;DHT22;12800;53.094;8.778;2023-12-04T04:00:04;2.10;85.10
24678;DHT22;12800;53.094;8.778;2023-12-04T04:02:31;2.10;85.30
24678;DHT22;12800;53.094;8.778;2023-12-04T04:04:57;2.10;85.60
24678;DHT22;12800;53.094;8.778;2023-12-04T04:07:22;2.10;85.90
24678;DHT22;12800;53.094;8.778;2023-12-04T04:09:48;2.10;86.00
24678;DHT22;12800;53.094;8.778;2023-12-04T04:12:13;2.10;85.90
24678;DHT22;12800;53.094;8.778;2023-12-04T04:14:39;2.10;85.90
24678;DHT22;12800;53.094;8.778;2023-12-04T04:17:05;2.10;86.00
24678;DHT22;12800;53.094;8.778;2023-12-04T04:19:30;2.20;86.30
24678;DHT22;12800;53.094;8.778;2023-12-04T04:21:56;2.20;86.30
24678;DHT22;12800;53.094;8.778;2023-12-04T04:24:21;2.20;86.20
24678;DHT22;12800;53.094;8.778;2023-12-04T04:26:47;2.20;86.20
24678;DHT22;12800;53.094;8.778;2023-12-04T04:29:13;2.20;86.30
24678;DHT22;12800;53.094;8.778;2023-12-04T04:31:38;2.20;86.10
24678;DHT22;12800;53.094;8.778;2023-12-04T04:34:04;2.10;86.20
24678;DHT22;12800;53.094;8.778;2023-12-04T04:36:29;2.20;86.40
24678;DHT22;12800;53.094;8.778;2023-12-04T04:38:55;2.20;86.60
24678;DHT22;12800;53.094;8.778;2023-12-04T04:41:21;2.20;86.60
24678;DHT22;12800;53.094;8.778;2023-12-04T04:43:46;2.20;86.60
24678;DHT22;12800;53.094;8.778;2023-12-04T04:46:12;2.20;86.60
24678;DHT22;12800;53.094;8.778;2023-12-04T04:48:38;2.30;86.60
24678;DHT22;12800;53.094;8.778;2023-12-04T04:51:04;2.30;86.60
24678;DHT22;12800;53.094;8.778;2023-12-04T04:53:29;2.30;86.60
24678;DHT22;12800;53.094;8.778;2023-12-04T04:55:55;2.30;86.60
24678;DHT22;12800;53.094;8.778;2023-12-04T04:58:20;2.30;86.70
24678;DHT22;12800;53.094;8.778;2023-12-04T05:00:46;2.30;86.40
24678;DHT22;12800;53.094;8.778;2023-12-04T05:03:12;2.30;86.40
24678;DHT22;12800;53.094;8.778;2023-12-04T05:05:38;2.30;86.40
24678;DHT22;12800;53.094;8.778;2023-12-04T05:08:04;2.30;86.50
24678;DHT22;12800;53.094;8.778;2023-12-04T05:10:29;2.30;86.60
24678;DHT22;12800;53.094;8.778;2023-12-04T05:12:55;2.30;86.60
24678;DHT22;12800;53.094;8.778;2023-12-04T05:15:21;2.30;86.60
24678;DHT22;12800;53.094;8.778;2023-12-04T05:17:46;2.30;86.70
24678;DHT22;12800;53.094;8.778;2023-12-04T05:20:12;2.30;86.60
24678;DHT22;12800;53.094;8.778;2023-12-04T05:22:38;2.30;86.70
24678;DHT22;12800;53.094;8.778;2023-12-04T05:25:04;2.30;86.60
24678;DHT22;12800;53.094;8.778;2023-12-04T05:27:29;2.20;86.60
24678;DHT22;12800;53.094;8.778;2023-12-04T05:29:55;2.30;86.70
24678;DHT22;12800;53.094;8.778;2023-12-04T05:32:21;2.30;86.90
24678;DHT22;12800;53.094;8.778;2023-12-04T05:34:46;2.30;86.80
24678;DHT22;12800;53.094;8.778;2023-12-04T05:37:12;2.30;86.70
24678;DHT22;12800;53.094;8.778;2023-12-04T05:39:37;2.30;86.70
24678;DHT22;12800;53.094;8.778;2023-12-04T05:42:03;2.30;86.90
24678;DHT22;12800;53.094;8.778;2023-12-04T05:44:29;2.30;86.70
24678;DHT22;12800;53.094;8.778;2023-12-04T05:46:54;2.30;86.70
24678;DHT22;12800;53.094;8.778;2023-12-04T05:49:20;2.30;86.90
24678;DHT22;12800;53.094;8.778;2023-12-04T05:51:46;2.30;86.80
24678;DHT22;12800;53.094;8.778;2023-12-04T05:54:11;2.30;87.00
24678;DHT22;12800;53.094;8.778;2023-12-04T05:56:37;2.30;87.00
24678;DHT22;12800;53.094;8.778;2023-12-04T05:59:02;2.30;87.10
24678;DHT22;12800;53.094;8.778;2023-12-04T06:01:28;2.30;87.20
24678;DHT22;12800;53.094;8.778;2023-12-04T06:03:54;2.40;87.30
24678;DHT22;12800;53.094;8.778;2023-12-04T06:06:19;2.40;87.30
24678;DHT22;12800;53.094;8.778;2023-12-04T06:08:45;2.40;87.10
24678;DHT22;12800;53.094;8.778;2023-12-04T06:11:10;2.40;87.00
24678;DHT22;12800;53.094;8.778;2023-12-04T06:13:36;2.40;87.10
24678;DHT22;12800;53.094;8.778;2023-12-04T06:16:02;2.40;86.90
24678;DHT22;12800;53.094;8.778;2023-12-04T06:18:27;2.40;86.90
24678;DHT22;12800;53.094;8.778;2023-12-04T06:20:53;2.30;87.00
24678;DHT22;12800;53.094;8.778;2023-12-04T06:23:19;2.30;87.20
24678;DHT22;12800;53.094;8.778;2023-12-04T06:25:45;2.40;87.30
24678;DHT22;12800;53.094;8.778;2023-12-04T06:28:10;2.40;87.40
24678;DHT22;12800;53.094;8.778;2023-12-04T06:30:36;2.40;87.30
24678;DHT22;12800;53.094;8.778;2023-12-04T06:33:02;2.40;87.20
24678;DHT22;12800;53.094;8.778;2023-12-04T06:35:28;2.40;87.40
24678;DHT22;12800;53.094;8.778;2023-12-04T06:37:54;2.40;87.50
24678;DHT22;12800;53.094;8.778;2023-12-04T06:40:21;2.40;87.30
24678;DHT22;12800;53.094;8.778;2023-12-04T06:42:47;2.40;87.40
24678;DHT22;12800;53.094;8.778;2023-12-04T06:45:13;2.40;87.50
24678;DHT22;12800;53.094;8.778;2023-12-04T06:47:40;2.40;87.50
24678;DHT22;12800;53.094;8.778;2023-12-04T06:50:08;2.40;87.40
24678;DHT22;12800;53.094;8.778;2023-12-04T06:52:34;2.40;87.40
24678;DHT22;12800;53.094;8.778;2023-12-04T06:54:59;2.40;87.30
24678;DHT22;12800;53.094;8.778;2023-12-04T06:57:25;2.40;87.30
24678;DHT22;12800;53.094;8.778;2023-12-04T06:59:51;2.40;87.20
24678;DHT22;12800;53.094;8.778;2023-12-04T07:02:16;2.40;87.30
24678;DHT22;12800;53.094;8.778;2023-12-04T07:04:42;2.30;87.10
24678;DHT22;12800;53.094;8.778;2023-12-04T07:07:07;2.30;87.10
24678;DHT22;12800;53.094;8.778;2023-12-04T07:09:34;2.30;87.20
24678;DHT22;12800;53.094;8.778;2023-12-04T07:12:00;2.30;87.30
24678;DHT22;12800;53.094;8.778;2023-12-04T07:14:26;2.30;87.30
24678;DHT22;12800;53.094;8.778;2023-12-04T07:16:51;2.30;87.20
24678;DHT22;12800;53.094;8.778;2023-12-04T07:19:17;2.30;87.30
24678;DHT22;12800;53.094;8.778;2023-12-04T07:21:43;2.40;87.30
24678;DHT22;12800;53.094;8.778;2023-12-04T07:24:08;2.30;87.10
24678;DHT22;12800;53.094;8.778;2023-12-04T07:26:35;2.40;87.10
24678;DHT22;12800;53.094;8.778;2023-12-04T07:29:01;2.40;87.00
24678;DHT22;12800;53.094;8.778;2023-12-04T07:31:27;2.40;86.80
24678;DHT22;12800;53.094;8.778;2023-12-04T07:33:54;2.40;86.90
24678;DHT22;12800;53.094;8.778;2023-12-04T07:36:20;2.50;86.80
24678;DHT22;12800;53.094;8.778;2023-12-04T07:38:45;2.50;86.70
24678;DHT22;12800;53.094;8.778;2023-12-04T07:41:11;2.50;86.60
24678;DHT22;12800;53.094;8.778;2023-12-04T07:43:37;2.50;86.40
24678;DHT22;12800;53.094;8.778;2023-12-04T07:46:03;2.50;86.30
24678;DHT22;12800;53.094;8.778;2023-12-04T07:48:30;2.50;86.50
24678;DHT22;12800;53.094;8.778;2023-12-04T07:50:55;2.50;86.30
24678;DHT22;12800;53.094;8.778;2023-12-04T07:53:21;2.60;86.30
24678;DHT22;12800;53.094;8.778;2023-12-04T07:55:50;2.50;85.90
24678;DHT22;12800;53.094;8.778;2023-12-04T07:58:17;2.60;86.00
24678;DHT22;12800;53.094;8.778;2023-12-04T08:00:44;2.60;85.80
24678;DHT22;12800;53.094;8.778;2023-12-04T08:03:09;2.60;85.70
24678;DHT22;12800;53.094;8.778;2023-12-04T08:05:35;2.70;85.60
24678;DHT22;12800;53.094;8.778;2023-12-04T08:08:01;2.70;85.60
24678;DHT22;12800;53.094;8.778;2023-12-04T08:10:26;2.70;85.30
24678;DHT22;12800;53.094;8.778;2023-12-04T08:12:52;2.70;85.10
24678;DHT22;12800;53.094;8.778;2023-12-04T08:15:18;2.70;84.90
24678;DHT22;12800;53.094;8.778;2023-12-04T08:17:43;2.70;84.70
24678;DHT22;12800;53.094;8.778;2023-12-04T08:20:09;2.80;84.90
24678;DHT22;12800;53.094;8.778;2023-12-04T08:22:42;2.80;84.70
24678;DHT22;12800;53.094;8.778;2023-12-04T08:25:10;2.80;84.30
24678;DHT22;12800;53.094;8.778;2023-12-04T08:27:35;2.80;84.20
24678;DHT22;12800;53.094;8.778;2023-12-04T08:30:01;2.80;84.20
24678;DHT22;12800;53.094;8.778;2023-12-04T08:32:28;2.80;83.80
24678;DHT22;12800;53.094;8.778;2023-12-04T08:34:54;2.80;83.70
24678;DHT22;12800;53.094;8.778;2023-12-04T08:37:20;2.80;83.70
24678;DHT22;12800;53.094;8.778;2023-12-04T08:39:46;2.90;83.70
24678;DHT22;12800;53.094;8.778;2023-12-04T08:42:12;2.90;83.40
24678;DHT22;12800;53.094;8.778;2023-12-04T08:44:38;2.90;83.30
24678;DHT22;12800;53.094;8.778;2023-12-04T08:47:04;2.90;83.40
24678;DHT22;12800;53.094;8.778;2023-12-04T08:49:30;2.90;83.10
24678;DHT22;12800;53.094;8.778;2023-12-04T08:51:56;2.90;83.00
24678;DHT22;12800;53.094;8.778;2023-12-04T08:54:22;2.90;82.80
24678;DHT22;12800;53.094;8.778;2023-12-04T08:56:47;2.90;82.70
24678;DHT22;12800;53.094;8.778;2023-12-04T08:59:13;2.90;82.70
24678;DHT22;12800;53.094;8.778;2023-12-04T09:01:39;2.90;82.70
24678;DHT22;12800;53.094;8.778;2023-12-04T09:04:05;2.90;82.80
24678;DHT22;12800;53.094;8.778;2023-12-04T09:06:30;2.90;82.90
24678;DHT22;12800;53.094;8.778;2023-12-04T09:08:56;2.90;82.60
24678;DHT22;12800;53.094;8.778;2023-12-04T09:11:21;2.90;82.80
24678;DHT22;12800;53.094;8.778;2023-12-04T09:13:47;3.00;82.70
24678;DHT22;12800;53.094;8.778;2023-12-04T09:16:13;2.90;82.60
24678;DHT22;12800;53.094;8.778;2023-12-04T09:18:39;3.00;82.60
24678;DHT22;12800;53.094;8.778;2023-12-04T09:21:05;3.00;82.90
24678;DHT22;12800;53.094;8.778;2023-12-04T09:23:31;3.10;82.70
24678;DHT22;12800;53.094;8.778;2023-12-04T09:25:57;3.10;82.40
24678;DHT22;12800;53.094;8.778;2023-12-04T09:28:22;3.10;82.40
24678;DHT22;12800;53.094;8.778;2023-12-04T09:30:48;3.10;82.30
24678;DHT22;12800;53.094;8.778;2023-12-04T09:33:14;3.20;82.30
24678;DHT22;12800;53.094;8.778;2023-12-04T09:35:39;3.20;82.20
24678;DHT22;12800;53.094;8.778;2023-12-04T09:38:05;3.20;81.90
24678;DHT22;12800;53.094;8.778;2023-12-04T09:40:31;3.20;81.90
24678;DHT22;12800;53.094;8.778;2023-12-04T09:42:57;3.20;81.80
24678;DHT22;12800;53.094;8.778;2023-12-04T09:45:24;3.20;81.60
24678;DHT22;12800;53.094;8.778;2023-12-04T09:47:50;3.20;81.80
24678;DHT22;12800;53.094;8.778;2023-12-04T09:50:16;3.30;81.80
24678;DHT22;12800;53.094;8.778;2023-12-04T09:52:49;3.30;81.50
24678;DHT22;12800;53.094;8.778;2023-12-04T09:55:16;3.30;81.40
24678;DHT22;12800;53.094;8.778;2023-12-04T09:57:45;3.30;81.50
24678;DHT22;12800;53.094;8.778;2023-12-04T10:00:13;3.30;81.70
24678;DHT22;12800;53.094;8.778;2023-12-04T10:02:40;3.40;81.40
24678;DHT22;12800;53.094;8.778;2023-12-04T10:05:09;3.30;81.10
24678;DHT22;12800;53.094;8.778;2023-12-04T10:07:35;3.40;82.00
24678;DHT22;12800;53.094;8.778;2023-12-04T10:10:04;3.40;81.20
24678;DHT22;12800;53.094;8.778;2023-12-04T10:12:33;3.50;81.10
24678;DHT22;12800;53.094;8.778;2023-12-04T10:15:07;3.50;80.80
24678;DHT22;12800;53.094;8.778;2023-12-04T10:17:40;3.50;80.70
24678;DHT22;12800;53.094;8.778;2023-12-04T10:20:09;3.50;80.60
24678;DHT22;12800;53.094;8.778;2023-12-04T10:23:01;3.50;80.60
24678;DHT22;12800;53.094;8.778;2023-12-04T10:25:29;3.50;80.70
24678;DHT22;12800;53.094;8.778;2023-12-04T10:28:10;3.50;80.30
24678;DHT22;12800;53.094;8.778;2023-12-04T10:30:36;3.50;80.20
24678;DHT22;12800;53.094;8.778;2023-12-04T10:33:04;3.50;80.40
24678;DHT22;12800;53.094;8.778;2023-12-04T10:35:34;3.50;80.40
24678;DHT22;12800;53.094;8.778;2023-12-04T10:38:03;3.50;80.00
24678;DHT22;12800;53.094;8.778;2023-12-04T10:40:30;3.40;80.00
24678;DHT22;12800;53.094;8.778;2023-12-04T10:45:34;3.50;80.10
24678;DHT22;12800;53.094;8.778;2023-12-04T10:48:01;3.50;80.10
24678;DHT22;12800;53.094;8.778;2023-12-04T10:50:34;3.50;79.90
24678;DHT22;12800;53.094;8.778;2023-12-04T10:53:02;3.60;80.00
24678;DHT22;12800;53.094;8.778;2023-12-04T10:55:30;3.60;79.80
24678;DHT22;12800;53.094;8.778;2023-12-04T10:57:56;3.60;79.70
24678;DHT22;12800;53.094;8.778;2023-12-04T11:00:22;3.60;79.50
24678;DHT22;12800;53.094;8.778;2023-12-04T11:02:49;3.60;79.40
24678;DHT22;12800;53.094;8.778;2023-12-04T11:05:20;3.60;79.10
24678;DHT22;12800;53.094;8.778;2023-12-04T11:07:57;3.60;79.10
24678;DHT22;12800;53.094;8.778;2023-12-04T11:10:26;3.60;79.10
24678;DHT22;12800;53.094;8.778;2023-12-04T11:13:28;3.60;79.10
24678;DHT22;12800;53.094;8.778;2023-12-04T11:16:00;3.70;78.90
24678;DHT22;12800;53.094;8.778;2023-12-04T11:18:29;3.70;78.80
24678;DHT22;12800;53.094;8.778;2023-12-04T11:21:04;3.70;78.80
24678;DHT22;12800;53.094;8.778;2023-12-04T11:23:31;3.80;79.00
24678;DHT22;12800;53.094;8.778;2023-12-04T11:25:58;3.80;78.50
24678;DHT22;12800;53.094;8.778;2023-12-04T11:28:25;3.80;78.30
24678;DHT22;12800;53.094;8.778;2023-12-04T11:30:51;3.80;78.20
24678;DHT22;12800;53.094;8.778;2023-12-04T11:33:19;3.80;78.30
24678;DHT22;12800;53.094;8.778;2023-12-04T11:35:45;3.80;78.20
24678;DHT22;12800;53.094;8.778;2023-12-04T11:38:13;3.80;78.20
24678;DHT22;12800;53.094;8.778;2023-12-04T11:40:40;3.90;78.00
24678;DHT22;12800;53.094;8.778;2023-12-04T11:43:27;3.90;77.80
24678;DHT22;12800;53.094;8.778;2023-12-04T11:45:53;3.90;78.00
24678;DHT22;12800;53.094;8.778;2023-12-04T11:48:25;4.00;78.10
24678;DHT22;12800;53.094;8.778;2023-12-04T11:50:50;4.00;78.10
24678;DHT22;12800;53.094;8.778;2023-12-04T11:53:16;4.00;78.10
24678;DHT22;12800;53.094;8.778;2023-12-04T11:55:42;4.10;77.90
24678;DHT22;12800;53.094;8.778;2023-12-04T11:58:12;4.10;77.50
24678;DHT22;12800;53.094;8.778;2023-12-04T12:00:38;4.10;77.30
24678;DHT22;12800;53.094;8.778;2023-12-04T12:03:08;4.10;77.30
24678;DHT22;12800;53.094;8.778;2023-12-04T12:05:36;4.10;77.10
24678;DHT22;12800;53.094;8.778;2023-12-04T12:08:04;4.10;77.30
24678;DHT22;12800;53.094;8.778;2023-12-04T12:10:30;4.20;77.40
24678;DHT22;12800;53.094;8.778;2023-12-04T12:12:56;4.20;76.80
24678;DHT22;12800;53.094;8.778;2023-12-04T12:15:22;4.20;76.70
24678;DHT22;12800;53.094;8.778;2023-12-04T12:17:49;4.20;76.60
24678;DHT22;12800;53.094;8.778;2023-12-04T12:20:15;4.20;76.50
24678;DHT22;12800;53.094;8.778;2023-12-04T12:22:41;4.10;76.10
24678;DHT22;12800;53.094;8.778;2023-12-04T12:25:10;4.10;76.00
24678;DHT22;12800;53.094;8.778;2023-12-04T12:27:36;4.10;76.10
24678;DHT22;12800;53.094;8.778;2023-12-04T12:30:02;4.10;76.10
24678;DHT22;12800;53.094;8.778;2023-12-04T12:32:31;4.10;76.30
24678;DHT22;12800;53.094;8.778;2023-12-04T12:34:56;4.20;76.20
24678;DHT22;12800;53.094;8.778;2023-12-04T12:37:22;4.20;76.20
24678;DHT22;12800;53.094;8.778;2023-12-04T12:39:48;4.20;75.90
24678;DHT22;12800;53.094;8.778;2023-12-04T12:42:29;4.10;75.70
24678;DHT22;12800;53.094;8.778;2023-12-04T12:44:56;4.10;75.80
24678;DHT22;12800;53.094;8.778;2023-12-04T12:47:24;4.10;76.10
24678;DHT22;12800;53.094;8.778;2023-12-04T12:49:50;4.10;76.10
24678;DHT22;12800;53.094;8.778;2023-12-04T12:52:17;4.20;76.10
24678;DHT22;12800;53.094;8.778;2023-12-04T12:54:43;4.20;76.00
24678;DHT22;12800;53.094;8.778;2023-12-04T12:57:10;4.20;75.60
24678;DHT22;12800;53.094;8.778;2023-12-04T12:59:38;4.10;75.40
24678;DHT22;12800;53.094;8.778;2023-12-04T13:02:04;4.00;76.20
24678;DHT22;12800;53.094;8.778;2023-12-04T13:04:43;4.00;75.30
24678;DHT22;12800;53.094;8.778;2023-12-04T13:07:09;4.00;75.50
24678;DHT22;12800;53.094;8.778;2023-12-04T13:09:36;4.00;75.80
24678;DHT22;12800;53.094;8.778;2023-12-04T13:12:03;4.00;75.80
24678;DHT22;12800;53.094;8.778;2023-12-04T13:14:29;4.00;75.40
24678;DHT22;12800;53.094;8.778;2023-12-04T13:16:55;4.00;75.60
24678;DHT22;12800;53.094;8.778;2023-12-04T13:19:25;3.90;75.70
24678;DHT22;12800;53.094;8.778;2023-12-04T13:21:51;4.00;75.70
24678;DHT22;12800;53.094;8.778;2023-12-04T13:24:16;3.90;75.60
24678;DHT22;12800;53.094;8.778;2023-12-04T13:26:43;3.90;75.50
24678;DHT22;12800;53.094;8.778;2023-12-04T13:29:10;3.90;75.60
24678;DHT22;12800;53.094;8.778;2023-12-04T13:31:35;3.90;75.60
24678;DHT22;12800;53.094;8.778;2023-12-04T13:34:01;3.90;75.70
24678;DHT22;12800;53.094;8.778;2023-12-04T13:36:28;3.90;75.70
24678;DHT22;12800;53.094;8.778;2023-12-04T13:38:54;3.90;75.80
24678;DHT22;12800;53.094;8.778;2023-12-04T13:41:20;3.90;75.50
24678;DHT22;12800;53.094;8.778;2023-12-04T13:44:04;3.90;75.60
24678;DHT22;12800;53.094;8.778;2023-12-04T13:46:29;3.90;75.50
24678;DHT22;12800;53.094;8.778;2023-12-04T13:48:58;3.80;75.30
24678;DHT22;12800;53.094;8.778;2023-12-04T13:51:24;3.80;75.50
24678;DHT22;12800;53.094;8.778;2023-12-04T13:53:51;3.80;75.80
24678;DHT22;12800;53.094;8.778;2023-12-04T13:56:21;3.80;75.70
24678;DHT22;12800;53.094;8.778;2023-12-04T13:59:00;3.90;75.50
24678;DHT22;12800;53.094;8.778;2023-12-04T14:01:29;3.80;75.40
24678;DHT22;12800;53.094;8.778;2023-12-04T14:03:57;3.80;75.40
24678;DHT22;12800;53.094;8.778;2023-12-04T14:06:30;3.80;75.30
24678;DHT22;12800;53.094;8.778;2023-12-04T14:08:57;3.80;75.30
24678;DHT22;12800;53.094;8.778;2023-12-04T14:11:23;3.80;75.30
24678;DHT22;12800;53.094;8.778;2023-12-04T14:13:49;3.80;75.30
24678;DHT22;12800;53.094;8.778;2023-12-04T14:16:15;3.80;75.20
24678;DHT22;12800;53.094;8.778;2023-12-04T14:18:41;3.70;75.00
24678;DHT22;12800;53.094;8.778;2023-12-04T14:21:08;3.70;75.00
24678;DHT22;12800;53.094;8.778;2023-12-04T14:23:34;3.70;75.20
24678;DHT22;12800;53.094;8.778;2023-12-04T14:26:00;3.70;75.00
24678;DHT22;12800;53.094;8.778;2023-12-04T14:28:26;3.70;75.00
24678;DHT22;12800;53.094;8.778;2023-12-04T14:30:52;3.70;75.10
24678;DHT22;12800;53.094;8.778;2023-12-04T14:33:18;3.60;74.90
24678;DHT22;12800;53.094;8.778;2023-12-04T14:35:43;3.60;74.90
24678;DHT22;12800;53.094;8.778;2023-12-04T14:38:09;3.60;75.00
24678;DHT22;12800;53.094;8.778;2023-12-04T14:40:35;3.60;75.10
24678;DHT22;12800;53.094;8.778;2023-12-04T14:43:00;3.50;74.90
24678;DHT22;12800;53.094;8.778;2023-12-04T14:45:26;3.50;75.00
24678;DHT22;12800;53.094;8.778;2023-12-04T14:47:52;3.50;74.90
24678;DHT22;12800;53.094;8.778;2023-12-04T14:50:21;3.50;75.00
24678;DHT22;12800;53.094;8.778;2023-12-04T14:52:47;3.50;75.10
24678;DHT22;12800;53.094;8.778;2023-12-04T14:55:16;3.50;75.20
24678;DHT22;12800;53.094;8.778;2023-12-04T14:57:48;3.50;75.30
24678;DHT22;12800;53.094;8.778;2023-12-04T15:00:37;3.50;75.10
24678;DHT22;12800;53.094;8.778;2023-12-04T15:03:21;3.60;75.20
24678;DHT22;12800;53.094;8.778;2023-12-04T15:06:05;3.60;75.10
24678;DHT22;12800;53.094;8.778;2023-12-04T15:08:36;3.60;75.10
24678;DHT22;12800;53.094;8.778;2023-12-04T15:11:14;3.50;75.10
24678;DHT22;12800;53.094;8.778;2023-12-04T15:13:58;3.50;75.10
24678;DHT22;12800;53.094;8.778;2023-12-04T15:16:42;3.50;75.10
24678;DHT22;12800;53.094;8.778;2023-12-04T15:19:14;3.50;75.10
24678;DHT22;12800;53.094;8.778;2023-12-04T15:21:58;3.50;75.10
24678;DHT22;12800;53.094;8.778;2023-12-04T15:24:24;3.50;75.00
24678;DHT22;12800;53.094;8.778;2023-12-04T15:26:50;3.50;75.00
24678;DHT22;12800;53.094;8.778;2023-12-04T15:29:17;3.50;74.80
24678;DHT22;12800;53.094;8.778;2023-12-04T15:31:48;3.50;74.80
24678;DHT22;12800;53.094;8.778;2023-12-04T15:34:14;3.50;74.70
24678;DHT22;12800;53.094;8.778;2023-12-04T15:36:39;3.40;74.50
24678;DHT22;12800;53.094;8.778;2023-12-04T15:39:05;3.40;75.20
24678;DHT22;12800;53.094;8.778;2023-12-04T15:41:31;3.50;75.40
24678;DHT22;12800;53.094;8.778;2023-12-04T15:43:56;3.50;75.40
24678;DHT22;12800;53.094;8.778;2023-12-04T15:46:22;3.50;75.30